Time;durP1;ratioP1;P1;durP2;ratioP2;P2;SDS_P1;SDS_P2;PMS_P1;PMS_P2;Temp;Humidity;BMP_temperature;BMP_pressure;BME280_temperature;BME280_humidity;BME280_pressure;Samples;Min_cycle;Max_cycle;Signal;HPM_P1;HPM_P2
2021/10/24 00:00:37;;;;;;;14.85;11.03;;;;;;;;;;1975004;72;21061;-82
2021/10/24 00:03:08;;;;;;;18.67;13.48;;;;;;;;;;1974320;72;21143;-81
2021/10/24 00:05:38;;;;;;;20.50;15.80;;;;;;;;;;1968350;72;21079;-72
2021/10/24 00:08:09;;;;;;;18.45;13.98;;;;;;;;;;1957724;71;21100;-73
2021/10/24 00:10:39;;;;;;;17.90;12.15;;;;;;;;;;1957726;72;21207;-74
2021/10/24 00:13:09;;;;;;;16.37;10.98;;;;;;;;;;1979221;72;21193;-73
2021/10/24 00:15:40;;;;;;;15.55;9.60;;;;;;;;;;1961871;71;21255;-75
2021/10/24 00:18:10;;;;;;;15.50;10.03;;;;;;;;;;1973605;71;21187;-75
2021/10/24 00:20:40;;;;;;;13.10;8.85;;;;;;;;;;1958158;71;21189;-74
2021/10/24 00:23:11;;;;;;;11.43;8.15;;;;;;;;;;1979888;71;21104;-75
2021/10/24 00:25:41;;;;;;;12.05;8.60;;;;;;;;;;1957483;71;21626;-75
2021/10/24 00:28:11;;;;;;;13.95;9.50;;;;;;;;;;1954849;71;21612;-75
2021/10/24 00:30:43;;;;;;;16.32;9.78;;;;;;;;;;1949190;72;21610;-74
2021/10/24 00:33:13;;;;;;;11.85;9.18;;;;;;;;;;1977289;72;21124;-74
2021/10/24 00:35:45;;;;;;;12.28;8.55;;;;;;;;;;1958390;71;21068;-74
2021/10/24 00:38:15;;;;;;;11.75;8.10;;;;;;;;;;1958678;71;21324;-75
2021/10/24 00:40:46;;;;;;;11.15;8.68;;;;;;;;;;1965844;71;21240;-74
2021/10/24 00:43:16;;;;;;;12.13;8.78;;;;;;;;;;1909892;73;21087;-74
2021/10/24 00:45:47;;;;;;;59.03;13.18;;;;;;;;;;1935641;73;21510;-76
2021/10/24 00:48:17;;;;;;;61.53;16.15;;;;;;;;;;1921293;73;21187;-75
2021/10/24 00:50:48;;;;;;;21.40;10.38;;;;;;;;;;1912360;73;21280;-73
2021/10/24 00:53:18;;;;;;;9.23;6.97;;;;;;;;;;1912670;73;21226;-74
2021/10/24 00:55:48;;;;;;;9.30;6.70;;;;;;;;;;1924298;73;21148;-74
2021/10/24 00:58:18;;;;;;;12.95;7.67;;;;;;;;;;1914760;73;21132;-73
2021/10/24 01:00:48;;;;;;;12.10;7.35;;;;;;;;;;1946105;73;21128;-73
2021/10/24 01:03:19;;;;;;;10.60;6.97;;;;;;;;;;1927008;73;21139;-74
2021/10/24 01:05:49;;;;;;;10.85;7.20;;;;;;;;;;1929270;73;21224;-73
2021/10/24 01:08:19;;;;;;;9.00;6.95;;;;;;;;;;1985439;71;21123;-74
2021/10/24 01:10:49;;;;;;;10.18;6.47;;;;;;;;;;1969823;72;21787;-73
2021/10/24 01:13:20;;;;;;;14.47;6.28;;;;;;;;;;1958417;72;21151;-74
2021/10/24 01:15:50;;;;;;;9.93;6.47;;;;;;;;;;1965717;71;21174;-75
2021/10/24 01:18:21;;;;;;;11.20;6.75;;;;;;;;;;1960216;72;21202;-76
2021/10/24 01:20:51;;;;;;;9.68;6.37;;;;;;;;;;1952736;72;21595;-75
2021/10/24 01:23:23;;;;;;;11.05;6.35;;;;;;;;;;1954476;71;21214;-74
2021/10/24 01:25:54;;;;;;;8.95;5.83;;;;;;;;;;1941025;72;21124;-79
2021/10/24 01:28:24;;;;;;;9.40;6.37;;;;;;;;;;1955916;71;21722;-75
2021/10/24 01:30:55;;;;;;;10.58;6.15;;;;;;;;;;1964144;71;21151;-76
2021/10/24 01:33:25;;;;;;;10.28;5.47;;;;;;;;;;1960846;72;21170;-76
2021/10/24 01:35:55;;;;;;;7.45;4.95;;;;;;;;;;1979666;71;21176;-75
2021/10/24 01:38:27;;;;;;;9.63;5.40;;;;;;;;;;1937011;72;21598;-76
2021/10/24 01:40:57;;;;;;;5.65;4.62;;;;;;;;;;1954976;72;21085;-76
2021/10/24 01:43:28;;;;;;;12.13;5.35;;;;;;;;;;1946848;72;21119;-76
2021/10/24 01:45:58;;;;;;;6.45;4.80;;;;;;;;;;1952605;72;21083;-75
2021/10/24 01:48:29;;;;;;;6.92;5.00;;;;;;;;;;1951103;72;21131;-80
2021/10/24 01:51:02;;;;;;;9.45;4.45;;;;;;;;;;1928202;72;21079;-75
2021/10/24 01:53:33;;;;;;;5.03;4.10;;;;;;;;;;1928908;72;21645;-79
2021/10/24 01:56:04;;;;;;;6.25;4.25;;;;;;;;;;1934757;72;21095;-77
2021/10/24 01:58:35;;;;;;;6.05;4.47;;;;;;;;;;1949924;72;21159;-76
2021/10/24 02:01:06;;;;;;;6.50;4.92;;;;;;;;;;1936427;72;21123;-77
2021/10/24 02:03:36;;;;;;;5.45;4.33;;;;;;;;;;1945592;72;21132;-76
2021/10/24 02:06:06;;;;;;;7.08;4.62;;;;;;;;;;1927585;72;21081;-75
2021/10/24 02:08:37;;;;;;;6.45;4.40;;;;;;;;;;1948187;72;23044;-75
2021/10/24 02:11:07;;;;;;;5.87;4.15;;;;;;;;;;1942861;72;21241;-75
2021/10/24 02:13:38;;;;;;;11.18;4.40;;;;;;;;;;1928453;73;21136;-77
2021/10/24 02:16:08;;;;;;;9.43;4.92;;;;;;;;;;1898569;73;21131;-77
2021/10/24 02:18:38;;;;;;;7.30;4.35;;;;;;;;;;1918151;73;21056;-75
2021/10/24 02:21:08;;;;;;;5.17;3.98;;;;;;;;;;1920276;73;21167;-78
2021/10/24 02:23:39;;;;;;;5.28;4.25;;;;;;;;;;1903463;73;21108;-78
2021/10/24 02:26:10;;;;;;;9.48;4.40;;;;;;;;;;1975859;71;21191;-77
2021/10/24 02:28:40;;;;;;;6.25;3.80;;;;;;;;;;1961823;72;21147;-79
2021/10/24 02:31:11;;;;;;;7.10;4.22;;;;;;;;;;1918181;73;21119;-78
2021/10/24 02:33:41;;;;;;;6.78;4.40;;;;;;;;;;1929925;73;21161;-76
2021/10/24 02:36:11;;;;;;;6.37;4.40;;;;;;;;;;1916222;73;21215;-77
2021/10/24 02:38:43;;;;;;;4.90;3.80;;;;;;;;;;1897833;74;21226;-78
2021/10/24 02:41:14;;;;;;;5.28;4.00;;;;;;;;;;1958625;72;21686;-77
2021/10/24 02:43:44;;;;;;;5.58;3.72;;;;;;;;;;1966586;72;21653;-77
2021/10/24 02:46:15;;;;;;;8.00;3.87;;;;;;;;;;1962561;71;21220;-77
2021/10/24 02:48:46;;;;;;;5.72;4.30;;;;;;;;;;1971522;71;21147;-78
2021/10/24 02:51:16;;;;;;;5.55;4.03;;;;;;;;;;1967493;72;21143;-77
2021/10/24 02:53:46;;;;;;;10.25;4.45;;;;;;;;;;1974205;71;21209;-76
2021/10/24 02:56:16;;;;;;;8.45;4.03;;;;;;;;;;1925031;73;21090;-79
2021/10/24 02:58:46;;;;;;;4.92;3.52;;;;;;;;;;1927369;73;21143;-78
2021/10/24 03:01:16;;;;;;;5.37;3.77;;;;;;;;;;1899718;74;21119;-78
2021/10/24 03:03:47;;;;;;;5.78;4.08;;;;;;;;;;1949348;72;21073;-78
2021/10/24 03:06:17;;;;;;;6.12;3.90;;;;;;;;;;1954761;72;21110;-77
2021/10/24 03:08:47;;;;;;;4.40;3.37;;;;;;;;;;1959895;72;21088;-77
2021/10/24 03:11:18;;;;;;;5.08;3.65;;;;;;;;;;1948759;72;21143;-76
2021/10/24 03:13:49;;;;;;;4.70;3.40;;;;;;;;;;1917127;72;21144;-78
2021/10/24 03:16:19;;;;;;;4.30;3.20;;;;;;;;;;1945636;72;21206;-79
2021/10/24 03:18:49;;;;;;;5.42;3.45;;;;;;;;;;1955208;72;21206;-77
2021/10/24 03:21:20;;;;;;;4.90;3.08;;;;;;;;;;1957490;72;22013;-77
2021/10/24 03:23:50;;;;;;;6.92;3.40;;;;;;;;;;1935856;72;21170;-77
2021/10/24 03:26:23;;;;;;;5.10;3.55;;;;;;;;;;1923642;73;21426;-78
2021/10/24 03:28:54;;;;;;;4.22;3.33;;;;;;;;;;1918654;72;21601;-77
2021/10/24 03:31:24;;;;;;;4.87;3.27;;;;;;;;;;1975840;72;21176;-75
2021/10/24 03:33:54;;;;;;;6.15;3.55;;;;;;;;;;1961478;72;21140;-78
2021/10/24 03:36:24;;;;;;;6.25;3.55;;;;;;;;;;1952446;72;21136;-77
2021/10/24 03:38:54;;;;;;;5.85;4.17;;;;;;;;;;1955642;72;21130;-78
2021/10/24 03:41:25;;;;;;;6.37;3.75;;;;;;;;;;1935636;72;21206;-75
2021/10/24 03:43:55;;;;;;;5.42;3.40;;;;;;;;;;1958665;72;21174;-77
2021/10/24 03:46:25;;;;;;;4.97;3.80;;;;;;;;;;1940935;72;21107;-76
2021/10/24 03:48:55;;;;;;;4.95;3.45;;;;;;;;;;1968995;71;21095;-77
2021/10/24 03:51:25;;;;;;;5.87;3.80;;;;;;;;;;1967620;71;21174;-77
2021/10/24 03:53:58;;;;;;;5.20;3.72;;;;;;;;;;1957755;71;21648;-77
2021/10/24 03:56:31;;;;;;;5.12;3.47;;;29.30;80.70;;;;;;1964739;71;21185;-80
2021/10/24 03:59:02;;;;;;;5.37;3.72;;;29.30;81.10;;;;;;1964065;71;21191;-78
2021/10/24 04:01:33;;;;;;;6.67;3.80;;;29.40;81.50;;;;;;1971382;71;22064;-78
2021/10/24 04:04:04;;;;;;;4.25;3.47;;;29.40;81.10;;;;;;1949912;72;21084;-77
2021/10/24 04:06:35;;;;;;;5.40;4.05;;;29.40;81.80;;;;;;1977829;72;21196;-77
2021/10/24 04:09:06;;;;;;;5.30;4.28;;;29.50;81.50;;;;;;1971280;71;21636;-80
2021/10/24 04:11:37;;;;;;;4.47;3.22;;;29.50;81.10;;;;;;1961204;72;21064;-80
2021/10/24 04:14:08;;;;;;;5.33;3.70;;;;;;;;;;1964579;72;21080;-79
2021/10/24 04:16:38;;;;;;;5.55;3.47;;;;;;;;;;1966612;72;21143;-80
2021/10/24 04:19:08;;;;;;;5.78;3.80;;;;;;;;;;1961682;72;21185;-79
2021/10/24 04:21:38;;;;;;;4.85;3.67;;;;;;;;;;1978800;71;21245;-80
2021/10/24 04:24:10;;;;;;;4.25;3.15;;;;;;;;;;1929147;72;21138;-79
2021/10/24 04:26:41;;;;;;;6.35;3.70;;;;;;;;;;1963881;71;21092;-77
2021/10/24 04:29:11;;;;;;;4.55;3.10;;;;;;;;;;1940193;72;21159;-78
2021/10/24 04:31:41;;;;;;;4.72;3.58;;;;;;;;;;1944914;71;21185;-77
2021/10/24 04:34:11;;;;;;;4.58;3.45;;;;;;;;;;1961378;72;21217;-78
2021/10/24 04:36:41;;;;;;;6.05;3.70;;;;;;;;;;1938763;72;21128;-78
2021/10/24 04:39:11;;;;;;;5.33;3.58;;;;;;;;;;1929684;72;21217;-76
2021/10/24 04:41:42;;;;;;;5.67;3.90;;;;;;;;;;1945869;72;21183;-78
2021/10/24 04:44:12;;;;;;;7.70;3.92;;;;;;;;;;1953112;72;21637;-77
2021/10/24 04:46:43;;;;;;;5.58;3.45;;;;;;;;;;1982078;72;21064;-77
2021/10/24 04:49:13;;;;;;;4.50;3.20;;;;;;;;;;1938631;71;21593;-79
2021/10/24 04:51:43;;;;;;;4.15;3.40;;;;;;;;;;1956778;71;21096;-78
2021/10/24 04:54:13;;;;;;;4.78;3.80;;;;;;;;;;1966028;72;21143;-79
2021/10/24 04:56:44;;;;;;;5.70;3.55;;;;;;;;;;1966245;71;21154;-77
2021/10/24 04:59:16;;;;;;;6.00;3.98;;;;;;;;;;1958251;72;21163;-78
2021/10/24 05:02:07;;;;;;;6.67;3.50;;;29.90;99.90;;;;;;1969685;71;21433;-78
2021/10/24 05:04:38;;;;;;;4.35;3.40;;;29.70;99.90;;;;;;1916398;73;21109;-76
2021/10/24 05:07:09;;;;;;;4.60;3.70;;;29.70;99.90;;;;;;1913440;73;21234;-75
2021/10/24 05:09:40;;;;;;;5.42;3.10;;;29.90;99.90;;;;;;1929370;73;21182;-76
2021/10/24 05:12:11;;;;;;;4.00;3.30;;;30.00;99.90;;;;;;1937211;73;21125;-77
2021/10/24 05:14:42;;;;;;;3.98;3.15;;;;;;;;;;1939773;72;21696;-76
2021/10/24 05:17:12;;;;;;;6.00;3.35;;;;;;;;;;1928940;73;21214;-77
2021/10/24 05:19:44;;;;;;;3.85;3.00;;;29.90;89.00;;;;;;1923317;73;21367;-75
2021/10/24 05:22:16;;;;;;;3.83;3.08;;;;;;;;;;1944696;73;21607;-76
2021/10/24 05:24:46;;;;;;;4.53;3.50;;;;;;;;;;1918419;73;21598;-76
2021/10/24 05:27:18;;;;;;;5.33;3.47;;;;;;;;;;1905966;74;21187;-76
2021/10/24 05:29:50;;;;;;;4.37;3.40;;;;;;;;;;1876500;74;21104;-76
2021/10/24 05:32:22;;;;;;;4.60;3.15;;;;;;;;;;1879674;73;21779;-76
2021/10/24 05:34:55;;;;;;;5.20;3.70;;;;;;;;;;1886917;74;21104;-77
2021/10/24 05:37:26;;;;;;;4.67;3.25;;;;;;;;;;1880543;75;21547;-77
2021/10/24 05:39:58;;;;;;;4.33;3.22;;;;;;;;;;1899462;73;21147;-78
2021/10/24 05:42:29;;;;;;;5.80;3.15;;;;;;;;;;1880008;73;21140;-77
2021/10/24 05:45:01;;;;;;;5.40;3.35;;;;;;;;;;1892319;73;21152;-77
2021/10/24 05:47:32;;;;;;;4.75;3.27;;;;;;;;;;1884812;74;21646;-77
2021/10/24 05:50:03;;;;;;;4.17;3.20;;;;;;;;;;1902393;74;21292;-76
2021/10/24 05:52:34;;;;;;;6.22;3.52;;;;;;;;;;1872330;76;21618;-78
2021/10/24 05:55:06;;;;;;;6.00;3.12;;;;;;;;;;1883811;75;21205;-77
2021/10/24 05:57:37;;;;;;;4.35;3.12;;;;;;;;;;1883188;75;21645;-77
2021/10/24 06:00:09;;;;;;;4.90;3.33;;;;;;;;;;1889787;73;21260;-77
2021/10/24 06:02:43;;;;;;;4.28;3.33;;;;;;;;;;1927468;73;21088;-76
2021/10/24 06:05:15;;;;;;;3.80;3.20;;;;;;;;;;1918363;73;21148;-78
2021/10/24 06:07:49;;;;;;;5.03;3.22;;;;;;;;;;1887807;73;21111;-78
2021/10/24 06:10:22;;;;;;;7.75;3.17;;;;;;;;;;1911397;74;21580;-77
2021/10/24 06:12:51;;;;;;;6.85;3.72;;;;;;;;;;1901522;73;21107;-76
2021/10/24 06:15:22;;;;;;;4.60;3.15;;;;;;;;;;1882397;74;21191;-78
2021/10/24 06:17:53;;;;;;;4.50;3.45;;;;;;;;;;1888612;73;21234;-78
2021/10/24 06:20:24;;;;;;;6.08;3.55;;;;;;;;;;1888490;74;21148;-78
2021/10/24 06:22:55;;;;;;;4.72;3.80;;;;;;;;;;1886075;74;21198;-77
2021/10/24 06:25:26;;;;;;;8.70;3.70;;;;;;;;;;1913871;74;21195;-77
2021/10/24 06:27:56;;;;;;;4.80;3.62;;;;;;;;;;1904833;74;21198;-78
2021/10/24 06:30:27;;;;;;;6.75;3.72;;;;;;;;;;1906746;74;21161;-76
2021/10/24 06:32:57;;;;;;;5.20;3.55;;;;;;;;;;1917855;74;21127;-77
2021/10/24 06:35:29;;;;;;;4.33;3.60;;;;;;;;;;1911590;74;21162;-77
2021/10/24 06:38:01;;;;;;;4.37;3.80;;;;;;;;;;1909877;74;21109;-78
2021/10/24 06:40:32;;;;;;;6.50;3.70;;;;;;;;;;1907222;73;21215;-77
2021/10/24 06:43:05;;;;;;;6.80;3.77;;;;;;;;;;1920286;73;21131;-77
2021/10/24 06:45:36;;;;;;;5.47;3.30;;;;;;;;;;1906692;73;21744;-77
2021/10/24 06:48:07;;;;;;;6.22;3.70;;;;;;;;;;1904331;73;21091;-76
2021/10/24 06:50:37;;;;;;;4.60;3.42;;;;;;;;;;1896609;73;21628;-77
2021/10/24 06:53:08;;;;;;;5.10;3.45;;;;;;;;;;1886471;74;21099;-78
2021/10/24 06:55:40;;;;;;;4.25;3.33;;;;;;;;;;1891824;74;21223;-75
2021/10/24 06:58:10;;;;;;;4.08;3.20;;;;;;;;;;1895997;74;21196;-77
2021/10/24 07:00:43;;;;;;;5.15;3.87;;;;;;;;;;1878012;73;21135;-77
2021/10/24 07:03:13;;;;;;;6.87;3.65;;;;;;;;;;1893134;74;21229;-77
2021/10/24 07:05:44;;;;;;;5.67;3.70;;;;;;;;;;1884539;74;21080;-77
2021/10/24 07:08:15;;;;;;;6.12;5.50;;;;;;;;;;1898915;74;21210;-78
2021/10/24 07:10:46;;;;;;;5.42;3.72;;;;;;;;;;1894551;74;21522;-78
2021/10/24 07:13:17;;;;;;;4.97;3.70;;;;;;;;;;1895639;73;21084;-78
2021/10/24 07:15:50;;;;;;;6.22;3.80;;;;;;;;;;1886577;74;21122;-79
2021/10/24 07:18:21;;;;;;;5.95;4.10;;;;;;;;;;1884987;73;21717;-78
2021/10/24 07:20:52;;;;;;;4.42;3.72;;;;;;;;;;1871999;74;21179;-76
2021/10/24 07:23:25;;;;;;;4.90;3.70;;;;;;;;;;1852726;76;21200;-77
2021/10/24 07:25:57;;;;;;;6.05;3.95;;;;;;;;;;1884477;73;21170;-76
2021/10/24 07:28:28;;;;;;;11.93;4.55;;;;;;;;;;1888924;75;21111;-76
2021/10/24 07:31:01;;;;;;;4.90;3.70;;;;;;;;;;1873588;74;21108;-76
2021/10/24 07:33:32;;;;;;;7.30;4.58;;;;;;;;;;1843708;75;21197;-77
2021/10/24 07:36:03;;;;;;;5.90;3.40;;;;;;;;;;1869913;74;21211;-75
2021/10/24 07:38:34;;;;;;;4.70;3.42;;;;;;;;;;1885826;73;21263;-78
2021/10/24 07:43:46;;;;;;;5.87;4.03;;;;;;;;;;1919488;71;21239;-75
2021/10/24 07:46:18;;;;;;;4.22;3.12;;;;;;;;;;1919321;72;21210;-78
2021/10/24 07:48:49;;;;;;;4.50;3.30;;;;;;;;;;1917562;73;21115;-75
2021/10/24 07:51:20;;;;;;;6.30;3.80;;;;;;;;;;1919161;71;21528;-79
2021/10/24 07:53:53;;;;;;;5.10;3.92;;;;;;;;;;1939281;72;21587;-78
2021/10/24 07:56:26;;;;;;;4.85;3.50;;;;;;;;;;1930030;72;21123;-77
2021/10/24 07:58:57;;;;;;;6.22;4.05;;;;;;;;;;1916495;72;21184;-77
2021/10/24 08:01:27;;;;;;;5.05;3.65;;;;;;;;;;1913245;72;21172;-76
2021/10/24 08:03:59;;;;;;;9.33;4.60;;;29.60;99.90;;;;;;1939422;71;21138;-75
2021/10/24 08:06:32;;;;;;;6.62;4.10;;;29.40;99.90;;;;;;1899731;72;21568;-76
2021/10/24 08:09:05;;;;;;;5.78;4.35;;;29.70;99.90;;;;;;1929167;73;21174;-76
2021/10/24 08:11:35;;;;;;;6.33;4.08;;;;;;;;;;1914636;71;21639;-76
2021/10/24 08:14:08;;;;;;;5.03;4.00;;;29.40;99.90;;;;;;1921542;71;21135;-76
2021/10/24 08:16:41;;;;;;;7.70;4.90;;;29.40;99.90;;;;;;1936033;72;21140;-77
2021/10/24 08:19:11;;;;;;;6.15;4.67;;;29.30;99.90;;;;;;1939981;72;21136;-76
2021/10/24 08:21:43;;;;;;;10.08;4.62;;;29.40;99.90;;;;;;1911752;73;21550;-75
2021/10/24 08:24:14;;;;;;;5.30;4.20;;;29.30;99.90;;;;;;1920522;73;21519;-76
2021/10/24 08:26:45;;;;;;;4.85;4.10;;;29.30;99.90;;;;;;1932819;71;21108;-76
2021/10/24 08:29:17;;;;;;;6.03;4.70;;;29.30;99.90;;;;;;1909255;73;21538;-77
2021/10/24 08:31:51;;;;;;;5.92;4.65;;;29.30;99.90;;;;;;1922747;72;21288;-76
2021/10/24 08:34:22;;;;;;;6.92;4.25;;;29.30;99.90;;;;;;1909378;73;21066;-76
2021/10/24 08:36:53;;;;;;;6.50;4.08;;;29.30;99.90;;;;;;1861942;74;21433;-76
2021/10/24 08:39:24;;;;;;;5.65;4.55;;;29.40;99.90;;;;;;1878467;74;21150;-78
2021/10/24 08:41:57;;;;;;;8.20;4.47;;;29.20;99.90;;;;;;1862963;74;21751;-78
2021/10/24 08:44:28;;;;;;;11.75;5.25;;;29.10;99.90;;;;;;1919571;73;21807;-77
2021/10/24 08:46:59;;;;;;;7.92;5.10;;;29.00;99.90;;;;;;1928277;71;21593;-77
2021/10/24 08:49:30;;;;;;;6.17;5.10;;;29.00;99.90;;;;;;1940139;73;21134;-78
2021/10/24 08:52:03;;;;;;;7.35;4.87;;;29.10;99.90;;;;;;1937148;72;21524;-78
2021/10/24 08:54:35;;;;;;;7.37;4.72;;;28.90;99.90;;;;;;1926857;72;21718;-77
2021/10/24 08:57:05;;;;;;;6.60;4.80;;;29.00;99.90;;;;;;1923899;72;21149;-76
2021/10/24 08:59:38;;;;;;;6.85;4.75;;;29.00;99.90;;;;;;1909434;73;21642;-77
2021/10/24 09:02:10;;;;;;;8.23;4.97;;;28.90;99.90;;;;;;1955875;72;21701;-77
2021/10/24 09:04:43;;;;;;;6.92;4.62;;;28.80;99.90;;;;;;1945039;72;21108;-77
2021/10/24 09:07:14;;;;;;;5.47;4.30;;;28.90;99.90;;;;;;1916214;72;21212;-77
2021/10/24 09:09:44;;;;;;;5.47;4.58;;;;;;;;;;1914737;72;21174;-77
2021/10/24 09:12:17;;;;;;;6.10;4.87;;;28.70;99.90;;;;;;1864813;74;21621;-77
2021/10/24 09:14:49;;;;;;;7.95;4.55;;;29.00;99.90;;;;;;1887127;74;21601;-76
2021/10/24 09:17:22;;;;;;;7.90;4.45;;;;;;;;;;1871115;74;21539;-75
2021/10/24 09:19:56;;;;;;;5.80;4.67;;;28.70;99.90;;;;;;1870434;74;21162;-77
2021/10/24 09:22:27;;;;;;;7.20;4.78;;;;;;;;;;1876655;74;21119;-77
2021/10/24 09:25:00;;;;;;;6.47;4.75;;;28.70;99.90;;;;;;1878235;74;21135;-77
2021/10/24 09:27:31;;;;;;;7.03;5.37;;;;;;;;;;1867770;75;21153;-77
2021/10/24 09:30:04;;;;;;;9.23;5.67;;;28.70;99.90;;;;;;1899719;73;21094;-78
2021/10/24 09:32:38;;;;;;;11.48;6.25;;;28.70;99.90;;;;;;1888679;74;21540;-77
2021/10/24 09:35:09;;;;;;;6.90;5.72;;;;;;;;;;1875790;74;21642;-76
2021/10/24 09:37:41;;;;;;;10.00;6.85;;;;;;;;;;1884535;74;21127;-77
2021/10/24 09:40:12;;;;;;;10.43;6.10;;;;;;;;;;1875517;74;21209;-78
2021/10/24 09:42:43;;;;;;;9.28;5.65;;;;;;;;;;1873297;74;21178;-78
2021/10/24 09:45:16;;;;;;;8.18;5.83;;;;;;;;;;1891356;74;21157;-76
2021/10/24 09:47:48;;;;;;;9.15;6.33;;;;;;;;;;1936162;72;21170;-76
2021/10/24 09:50:20;;;;;;;9.15;6.25;;;;;;;;;;1933044;72;21548;-75
2021/10/24 09:52:51;;;;;;;9.85;6.20;;;;;;;;;;1932068;72;21111;-76
2021/10/24 09:55:23;;;;;;;8.13;6.10;;;;;;;;;;1944786;72;21555;-75
2021/10/24 09:57:54;;;;;;;9.88;5.90;;;;;;;;;;1908746;73;21107;-75
2021/10/24 10:00:26;;;;;;;9.40;6.20;;;;;;;;;;1916435;73;21161;-75
2021/10/24 10:02:58;;;;;;;9.60;6.47;;;;;;;;;;1888977;73;21594;-75
2021/10/24 10:05:30;;;;;;;9.45;6.45;;;;;;;;;;1909039;73;21110;-76
2021/10/24 10:08:01;;;;;;;11.97;7.50;;;;;;;;;;1883993;74;21289;-76
2021/10/24 10:10:33;;;;;;;14.30;9.00;;;;;;;;;;1915544;71;21550;-75
2021/10/24 10:13:05;;;;;;;15.18;9.35;;;;;;;;;;1886163;74;21175;-78
2021/10/24 10:15:37;;;;;;;16.48;9.88;;;;;;;;;;1915633;73;21091;-78
2021/10/24 10:18:12;;;;;;;15.20;10.08;;;;;;;;;;1898688;73;21201;-79
2021/10/24 10:20:44;;;;;;;16.93;9.70;;;;;;;;;;1914494;73;21143;-76
2021/10/24 10:23:16;;;;;;;10.38;8.28;;;;;;;;;;1875240;74;21087;-77
2021/10/24 10:25:48;;;;;;;13.20;7.92;;;;;;;;;;1912029;72;21751;-78
2021/10/24 10:28:20;;;;;;;11.12;7.72;;;;;;;;;;1888044;75;21158;-77
2021/10/24 10:30:51;;;;;;;11.53;7.78;;;;;;;;;;1902289;73;22169;-74
2021/10/24 10:33:23;;;;;;;14.75;9.08;;;;;;;;;;1916093;73;21182;-76
2021/10/24 10:35:55;;;;;;;10.72;8.18;;;;;;;;;;1932237;73;21154;-77
2021/10/24 10:38:26;;;;;;;14.45;8.88;;;;;;;;;;1912855;73;21217;-77
2021/10/24 10:40:57;;;;;;;11.78;7.62;;;;;;;;;;1912514;73;21634;-77
2021/10/24 10:43:28;;;;;;;10.00;7.17;;;;;;;;;;1935217;72;21169;-77
2021/10/24 10:46:01;;;;;;;9.75;6.78;;;;;;;;;;1912215;72;21664;-77
2021/10/24 10:48:34;;;;;;;12.63;6.92;;;;;;;;;;1943680;72;21122;-77
2021/10/24 10:53:35;;;;;;;14.87;7.70;;;;;;;;;;1925354;72;21185;-77
2021/10/24 10:56:05;;;;;;;12.28;8.43;;;;;;;;;;1929955;72;21200;-77
2021/10/24 10:58:38;;;;;;;12.45;7.70;;;;;;;;;;1911561;73;21213;-78
2021/10/24 11:01:11;;;;;;;15.85;8.75;;;;;;;;;;1913319;73;21773;-75
2021/10/24 11:03:44;;;;;;;11.53;7.75;;;;;;;;;;1929785;73;21280;-76
2021/10/24 11:06:16;;;;;;;11.05;7.83;;;;;;;;;;1907175;73;21131;-77
2021/10/24 11:08:53;;;;;;;11.12;8.10;;;;;;;;;;1879820;74;21081;-76
2021/10/24 11:11:25;;;;;;;11.35;7.42;;;;;;;;;;1913182;73;21269;-77
2021/10/24 11:13:56;;;;;;;16.15;8.25;;;;;;;;;;1893646;73;21219;-76
2021/10/24 11:16:28;;;;;;;13.93;9.78;;;;;;;;;;1903260;72;21155;-76
2021/10/24 11:19:05;;;;;;;12.68;8.90;;;;;;;;;;1878258;75;21231;-77
2021/10/24 11:21:32;;;;;;;13.30;9.13;;;;;;;;;;1926783;73;21154;-76
2021/10/24 11:24:03;;;;;;;14.63;9.28;;;;;;;;;;1868959;73;21143;-75
2021/10/24 11:26:34;;;;;;;15.58;9.55;;;;;;;;;;1916274;72;21235;-76
2021/10/24 11:29:06;;;;;;;13.60;9.85;;;;;;;;;;1908361;73;21095;-77
2021/10/24 11:31:39;;;;;;;14.53;9.90;;;;;;;;;;1911397;72;21191;-76
2021/10/24 11:34:10;;;;;;;14.95;10.10;;;;;;;;;;1918068;73;21597;-76
2021/10/24 11:36:42;;;;;;;14.98;10.85;;;;;;;;;;1911906;73;21083;-76
2021/10/24 11:39:13;;;;;;;17.15;11.22;;;;;;;;;;1908100;73;21303;-76
2021/10/24 11:41:44;;;;;;;18.32;10.48;;;;;;;;;;1872543;74;21147;-77
2021/10/24 11:44:18;;;;;;;17.05;11.70;;;;;;;;;;1898275;74;21559;-77
2021/10/24 11:46:51;;;;;;;19.12;11.90;;;;;;;;;;1883805;74;21138;-77
2021/10/24 11:49:20;;;;;;;23.20;12.95;;;;;;;;;;1869058;75;21099;-76
2021/10/24 11:51:55;;;;;;;21.87;13.43;;;;;;;;;;1907713;73;21087;-75
2021/10/24 11:54:25;;;;;;;18.62;13.53;;;;;;;;;;1915032;73;21102;-76
2021/10/24 11:57:27;;;;;;;21.57;14.07;;;;;;;;;;1912350;73;21275;-76
2021/10/24 11:59:48;;;;;;;18.87;13.28;;;;;;;;;;1896798;73;21227;-77
2021/10/24 12:02:04;;;;;;;25.43;15.08;;;;;;;;;;1914108;72;21164;-77
2021/10/24 12:04:36;;;;;;;21.87;13.43;;;;;;;;;;1875064;74;21114;-75
2021/10/24 12:07:08;;;;;;;18.98;13.53;;;;;;;;;;1923094;72;21170;-77
2021/10/24 12:09:42;;;;;;;16.62;12.82;;;;;;;;;;1931746;73;21096;-76
2021/10/24 12:12:15;;;;;;;18.27;12.82;;;;;;;;;;1890105;74;21208;-76
2021/10/24 12:14:46;;;;;;;20.68;13.98;;;;;;;;;;1855972;75;21162;-78
2021/10/24 12:17:19;;;;;;;22.85;13.28;;;;;;;;;;1873506;74;21096;-76
2021/10/24 12:19:52;;;;;;;21.33;12.53;;;;;;;;;;1934223;72;21170;-77
2021/10/24 12:22:22;;;;;;;17.27;12.55;;;;;;;;;;1924976;73;21111;-76
2021/10/24 12:24:53;;;;;;;17.52;11.97;;;;;;;;;;1922585;73;21141;-77
2021/10/24 12:27:32;;;;;;;19.10;11.85;;;;;;;;;;1920383;73;21610;-76
2021/10/24 12:29:59;;;;;;;17.80;13.70;;;;;;;;;;1935786;73;21618;-76
2021/10/24 12:32:31;;;;;;;19.15;13.03;;;;;;;;;;1923584;73;21159;-76
2021/10/24 12:35:02;;;;;;;18.90;12.58;;;;;;;;;;1939819;71;21130;-76
2021/10/24 12:37:35;;;;;;;18.32;14.05;;;;;;;;;;1908184;72;21256;-77
2021/10/24 12:40:07;;;;;;;16.90;13.30;;;;;;;;;;1927704;73;21189;-77
2021/10/24 12:42:38;;;;;;;19.05;13.00;;;;;;;;;;1920904;73;21126;-77
2021/10/24 12:45:11;;;;;;;19.57;13.28;;;;;;;;;;1917839;72;21209;-76
2021/10/24 12:47:43;;;;;;;21.87;16.52;;;;;;;;;;1933792;73;21141;-78
2021/10/24 12:50:14;;;;;;;25.82;17.23;;;;;;;;;;1919304;71;21146;-77
2021/10/24 12:52:46;;;;;;;24.43;16.10;;;;;;;;;;1943607;73;21129;-77
2021/10/24 12:55:17;;;;;;;23.22;16.60;;;;;;;;;;1910169;74;21057;-76
2021/10/24 12:57:48;;;;;;;26.12;17.25;;;;;;;;;;1923213;74;21613;-79
2021/10/24 13:00:20;;;;;;;23.22;16.73;;;;;;;;;;1914604;74;21171;-80
2021/10/24 13:02:51;;;;;;;26.23;18.55;;;;;;;;;;1904374;73;21330;-80
2021/10/24 13:05:23;;;;;;;26.02;18.60;;;;;;;;;;1910957;74;21618;-80
2021/10/24 13:07:54;;;;;;;25.72;16.82;;;;;;;;;;1916981;73;21235;-80
2021/10/24 13:10:25;;;;;;;26.50;18.23;;;;;;;;;;1908963;73;21148;-80
2021/10/24 13:12:56;;;;;;;30.48;20.05;;;;;;;;;;1927413;72;21617;-80
2021/10/24 13:15:27;;;;;;;28.23;20.27;;;;;;;;;;1936620;72;21134;-81
2021/10/24 13:17:59;;;;;;;29.98;21.25;;;;;;;;;;1929053;71;21170;-80
2021/10/24 13:20:32;;;;;;;25.95;20.10;;;;;;;;;;1927639;71;21661;-80
2021/10/24 13:23:05;;;;;;;29.35;21.17;;;;;;;;;;1924504;73;21641;-80
2021/10/24 13:25:35;;;;;;;30.02;21.12;;;;;;;;;;1951970;72;21561;-79
2021/10/24 13:28:06;;;;;;;30.77;20.23;;;;;;;;;;1939461;72;21591;-80
2021/10/24 13:30:38;;;;;;;29.98;19.90;;;;;;;;;;1935508;72;21194;-80
2021/10/24 13:33:09;;;;;;;27.22;19.55;;;;;;;;;;1913961;71;21139;-80
2021/10/24 13:35:41;;;;;;;24.02;18.20;;;;;;;;;;1951951;72;21535;-80
2021/10/24 13:38:12;;;;;;;27.25;17.85;;;;;;;;;;1905206;73;21188;-80
2021/10/24 13:40:44;;;;;;;23.40;17.32;;;;;;;;;;1889251;74;21230;-80
2021/10/24 13:43:17;;;;;;;19.73;15.03;;;;;;;;;;1928997;72;21650;-80
2021/10/24 13:45:48;;;;;;;20.55;14.87;;;;;;;;;;1939117;72;21154;-80
2021/10/24 13:48:23;;;;;;;21.30;16.02;;;;;;;;;;1904281;73;21123;-79
2021/10/24 13:50:54;;;;;;;25.27;19.12;;;;;;;;;;1920307;71;21268;-78
2021/10/24 13:53:27;;;;;;;26.97;17.52;;;;;;;;;;1902745;73;21161;-80
2021/10/24 13:55:57;;;;;;;23.35;17.20;;;;;;;;;;1902506;72;21672;-79
2021/10/24 13:58:28;;;;;;;22.85;16.35;;;;;;;;;;1930990;72;21091;-80
2021/10/24 14:00:59;;;;;;;23.40;15.78;;;;;;;;;;1921950;72;21563;-80
2021/10/24 14:03:30;;;;;;;24.92;16.62;;;;;;;;;;1910536;73;21160;-80
2021/10/24 14:06:01;;;;;;;24.77;16.67;;;;;;;;;;1927299;73;21693;-80
2021/10/24 14:08:32;;;;;;;21.45;16.87;;;;;;;;;;1895541;73;21184;-81
2021/10/24 14:11:03;;;;;;;24.30;17.12;;;;;;;;;;1899283;73;21197;-80
2021/10/24 14:13:33;;;;;;;21.17;15.75;;;;;;;;;;1849397;75;21563;-80
2021/10/24 14:16:04;;;;;;;22.70;17.32;;;27.00;99.90;;;;;;1883626;73;21180;-80
2021/10/24 14:18:35;;;;;;;25.75;17.17;;;27.00;99.90;;;;;;1891932;73;21802;-80
2021/10/24 14:21:06;;;;;;;23.73;16.52;;;;;;;;;;1895015;73;21087;-80
2021/10/24 14:23:37;;;;;;;23.25;15.95;;;;;;;;;;1845275;75;21228;-80
2021/10/24 14:26:08;;;;;;;21.80;16.17;;;26.80;99.90;;;;;;1893218;74;21153;-80
2021/10/24 14:28:40;;;;;;;22.02;16.60;;;26.90;99.90;;;;;;1912251;74;21213;-80
2021/10/24 14:31:11;;;;;;;22.13;16.15;;;26.90;99.90;;;;;;1919784;74;21727;-80
2021/10/24 14:33:42;;;;;;;21.35;15.53;;;;;;;;;;1950472;72;21099;-80
2021/10/24 14:36:12;;;;;;;21.85;16.27;;;27.00;99.90;;;;;;1975104;72;21555;-80
2021/10/24 14:38:44;;;;;;;22.65;17.57;;;26.90;99.90;;;;;;1908356;73;21064;-79
2021/10/24 14:41:15;;;;;;;22.80;16.75;;;26.80;99.90;;;;;;1912368;72;21174;-80